createdAt,value
2024-02-07T00:00:19.644Z,100.00
2024-02-07T00:02:22.937Z,100.00
2024-02-07T00:04:27.611Z,99.85
2024-02-07T00:06:30.996Z,99.78
2024-02-07T00:08:34.129Z,99.78
2024-02-07T00:10:37.202Z,99.88
2024-02-07T00:12:40.314Z,99.82
2024-02-07T00:14:43.378Z,99.63
2024-02-07T00:16:46.477Z,99.48
2024-02-07T00:18:49.552Z,99.42
2024-02-07T00:20:54.131Z,99.36
2024-02-07T00:22:57.256Z,99.21
2024-02-07T00:25:00.390Z,99.18
2024-02-07T00:27:03.961Z,99.24
2024-02-07T00:29:07.053Z,99.22
2024-02-07T00:31:10.269Z,99.25
2024-02-07T00:33:13.566Z,99.35
2024-02-07T00:35:16.697Z,99.26
2024-02-07T00:37:21.204Z,99.23
2024-02-07T00:39:24.292Z,99.22
2024-02-07T00:41:27.725Z,99.24
2024-02-07T00:43:34.464Z,99.20
2024-02-07T00:45:37.712Z,99.11
2024-02-07T00:47:41.768Z,99.07
2024-02-07T00:49:45.159Z,98.92
2024-02-07T00:51:48.348Z,98.88
2024-02-07T00:53:51.848Z,98.94
2024-02-07T00:55:54.998Z,98.77
2024-02-07T00:57:58.083Z,98.72
2024-02-07T01:00:00.137Z,98.70
2024-02-07T01:02:03.633Z,98.71
2024-02-07T01:04:06.849Z,98.81
2024-02-07T01:06:10.136Z,98.81
2024-02-07T01:08:13.283Z,98.82
2024-02-07T01:10:18.236Z,98.69
2024-02-07T01:12:21.381Z,98.70
2024-02-07T01:14:27.791Z,98.76
2024-02-07T01:16:30.858Z,98.62
2024-02-07T01:18:33.982Z,98.50
2024-02-07T01:20:37.152Z,98.39
2024-02-07T01:22:40.479Z,98.16
2024-02-07T01:24:43.751Z,98.31
2024-02-07T01:26:48.558Z,98.14
2024-02-07T01:28:52.388Z,97.85
2024-02-07T01:30:55.556Z,97.83
2024-02-07T01:32:57.699Z,97.69
2024-02-07T01:35:01.660Z,97.62
2024-02-07T01:37:06.535Z,97.80
2024-02-07T01:39:11.447Z,97.71
2024-02-07T01:41:14.449Z,97.48
2024-02-07T01:43:19.160Z,97.43
2024-02-07T01:45:25.620Z,97.60
2024-02-07T01:47:28.725Z,97.32
2024-02-07T01:49:30.922Z,97.22
2024-02-07T01:51:34.011Z,97.29
2024-02-07T01:53:39.827Z,97.12
2024-02-07T01:55:45.716Z,97.02
2024-02-07T01:57:49.800Z,97.01
2024-02-07T01:59:54.345Z,96.98
2024-02-07T02:01:58.239Z,97.02
2024-02-07T02:04:01.429Z,96.87
2024-02-07T02:06:04.860Z,96.95
2024-02-07T02:08:08.783Z,96.92
2024-02-07T02:10:14.551Z,96.85
2024-02-07T02:12:19.261Z,96.60
2024-02-07T02:14:23.145Z,96.48
2024-02-07T02:16:27.556Z,96.42
2024-02-07T02:18:31.827Z,96.24
2024-02-07T02:20:38.244Z,96.14
2024-02-07T02:25:42.013Z,96.20
2024-02-07T02:27:54.096Z,96.29
2024-02-07T02:30:10.594Z,96.43
2024-02-07T02:32:13.978Z,96.38
2024-02-07T02:34:16.571Z,96.34
2024-02-07T02:36:19.763Z,96.22
2024-02-07T02:38:24.905Z,95.96
2024-02-07T02:40:29.397Z,95.62
2024-02-07T02:42:32.383Z,95.76
2024-02-07T02:44:35.560Z,95.62
2024-02-07T02:46:40.096Z,95.72
2024-02-07T02:48:43.214Z,95.65
2024-02-07T02:50:46.973Z,95.73
2024-02-07T02:52:50.142Z,95.69
2024-02-07T02:54:53.296Z,95.64
2024-02-07T02:57:01.204Z,95.53
2024-02-07T02:59:06.954Z,95.28
2024-02-07T03:01:11.343Z,95.03
2024-02-07T03:03:17.407Z,95.03
2024-02-07T03:05:39.366Z,94.39
2024-02-07T03:07:56.061Z,93.79
2024-02-07T03:09:59.350Z,93.61
2024-02-07T03:12:02.483Z,92.24
2024-02-07T03:14:05.938Z,91.66
2024-02-07T03:16:09.196Z,91.21
2024-02-07T03:18:12.847Z,91.24
2024-02-07T03:20:18.019Z,90.60
2024-02-07T03:22:20.107Z,90.03
2024-02-07T03:24:23.210Z,89.59
2024-02-07T03:26:26.276Z,88.96
2024-02-07T03:28:31.363Z,88.54
2024-02-07T03:30:35.472Z,87.74
2024-02-07T03:32:39.600Z,87.47
2024-02-07T03:34:43.689Z,87.24
2024-02-07T03:36:48.455Z,86.91
2024-02-07T03:38:51.839Z,86.53
2024-02-07T03:40:55.994Z,86.64
2024-02-07T03:43:00.019Z,86.60
2024-02-07T03:45:05.003Z,86.29
2024-02-07T03:47:10.668Z,86.18
2024-02-07T03:49:13.984Z,86.06
2024-02-07T03:51:17.626Z,86.17
2024-02-07T03:53:21.063Z,85.91
2024-02-07T03:55:24.137Z,85.74
2024-02-07T03:57:27.161Z,86.00
2024-02-07T03:59:30.282Z,85.86
2024-02-07T04:01:33.418Z,86.16
2024-02-07T04:03:36.436Z,86.76
2024-02-07T04:05:41.051Z,86.73
2024-02-07T04:07:44.757Z,87.35
2024-02-07T04:09:48.359Z,87.67
2024-02-07T04:11:50.288Z,88.21
2024-02-07T04:13:52.295Z,88.52
2024-02-07T04:16:13.045Z,88.80
2024-02-07T04:18:34.002Z,89.28
2024-02-07T04:20:54.732Z,89.70
2024-02-07T04:23:15.341Z,90.00
2024-02-07T04:25:37.152Z,90.42
2024-02-07T04:27:57.880Z,90.13
2024-02-07T04:30:20.618Z,89.95
2024-02-07T04:32:41.266Z,89.98
2024-02-07T04:35:02.260Z,90.05
2024-02-07T04:37:24.869Z,90.12
2024-02-07T04:39:45.238Z,89.87
2024-02-07T04:42:07.176Z,89.43
2024-02-07T04:44:28.077Z,89.08
2024-02-07T04:46:48.773Z,88.97
2024-02-07T04:49:09.587Z,88.87
2024-02-07T04:51:30.584Z,88.98
2024-02-07T04:53:50.777Z,88.54
2024-02-07T04:56:11.150Z,88.25
2024-02-07T04:58:33.951Z,88.07
2024-02-07T05:00:54.750Z,88.00
2024-02-07T05:03:15.399Z,87.78
2024-02-07T05:05:36.245Z,87.58
2024-02-07T05:07:56.907Z,87.42
2024-02-07T05:10:17.660Z,87.49
2024-02-07T05:12:37.803Z,86.98
2024-02-07T05:14:49.971Z,86.98
2024-02-07T05:16:53.158Z,86.43
2024-02-07T05:18:56.934Z,86.34
2024-02-07T05:21:00.340Z,86.42
2024-02-07T05:23:03.568Z,85.71
2024-02-07T05:25:07.590Z,85.13
2024-02-07T05:27:13.691Z,85.13
2024-02-07T05:29:18.789Z,85.09
2024-02-07T05:31:23.333Z,85.05
2024-02-07T05:33:26.822Z,85.11
2024-02-07T05:35:30.025Z,84.14
2024-02-07T05:37:33.425Z,83.94
2024-02-07T05:39:38.885Z,82.98
2024-02-07T05:41:44.959Z,82.75
2024-02-07T05:43:48.302Z,82.77
2024-02-07T05:45:51.337Z,81.57
2024-02-07T05:47:55.797Z,80.46
2024-02-07T05:49:59.335Z,80.39
2024-02-07T05:52:03.290Z,79.57
2024-02-07T05:54:07.000Z,79.31
2024-02-07T05:56:10.504Z,78.60
2024-02-07T05:58:14.510Z,78.33
2024-02-07T06:00:18.958Z,77.38
2024-02-07T06:02:22.158Z,76.94
2024-02-07T06:04:26.813Z,76.68
2024-02-07T06:06:31.493Z,75.89
2024-02-07T06:08:36.880Z,75.82
2024-02-07T06:10:41.476Z,75.57
2024-02-07T06:12:46.338Z,75.63
2024-02-07T06:14:50.013Z,75.46
2024-02-07T06:16:53.201Z,75.43
2024-02-07T06:18:56.624Z,75.39
2024-02-07T06:21:01.167Z,75.36
2024-02-07T06:23:04.659Z,75.24
2024-02-07T06:25:08.042Z,75.17
2024-02-07T06:27:10.252Z,75.01
2024-02-07T06:29:13.310Z,74.85
2024-02-07T06:31:16.599Z,74.76
2024-02-07T06:33:19.702Z,74.91
2024-02-07T06:35:23.329Z,74.55
2024-02-07T06:37:29.768Z,74.41
2024-02-07T06:39:32.858Z,74.18
2024-02-07T06:41:35.912Z,73.97
2024-02-07T06:43:38.998Z,74.18
2024-02-07T06:45:42.181Z,74.34
2024-02-07T06:47:45.430Z,74.37
2024-02-07T06:49:48.874Z,74.36
2024-02-07T06:51:51.020Z,74.19
2024-02-07T06:53:55.434Z,74.45
2024-02-07T06:56:00.419Z,74.30
2024-02-07T06:58:03.716Z,74.46
2024-02-07T07:00:08.283Z,74.62
2024-02-07T07:02:11.532Z,74.15
2024-02-07T07:04:15.054Z,74.43
2024-02-07T07:06:18.188Z,74.43
2024-02-07T07:08:21.417Z,74.41
2024-02-07T07:10:25.959Z,74.30
2024-02-07T07:12:29.158Z,74.56
2024-02-07T07:14:32.173Z,74.86
2024-02-07T07:16:35.245Z,74.76
2024-02-07T07:18:37.373Z,75.13
2024-02-07T07:20:42.198Z,75.27
2024-02-07T07:22:48.601Z,75.55
2024-02-07T07:24:56.374Z,75.65
2024-02-07T07:27:02.802Z,75.62
2024-02-07T07:29:06.296Z,75.72
2024-02-07T07:31:09.992Z,75.77
2024-02-07T07:33:12.689Z,75.82
2024-02-07T07:35:16.132Z,75.86
2024-02-07T07:37:19.805Z,75.77
2024-02-07T07:39:22.888Z,75.70
2024-02-07T07:41:26.124Z,75.75
2024-02-07T07:43:30.558Z,75.84
2024-02-07T07:45:33.678Z,75.73
2024-02-07T07:47:40.398Z,75.55
2024-02-07T07:49:43.680Z,75.76
2024-02-07T07:51:46.922Z,75.82
2024-02-07T07:53:50.588Z,75.64
2024-02-07T07:55:53.710Z,75.93
2024-02-07T07:57:55.984Z,76.01
2024-02-07T08:00:00.427Z,75.93
2024-02-07T08:02:04.307Z,76.12
2024-02-07T08:04:07.396Z,76.08
2024-02-07T08:06:09.823Z,76.13
2024-02-07T08:08:13.269Z,76.33
2024-02-07T08:10:16.830Z,76.22
2024-02-07T08:12:20.401Z,76.26
2024-02-07T08:14:23.553Z,76.40
2024-02-07T08:16:28.164Z,76.46
2024-02-07T08:18:32.628Z,76.32
2024-02-07T08:20:35.739Z,76.58
2024-02-07T08:22:39.007Z,76.59
2024-02-07T08:24:42.089Z,76.60
2024-02-07T08:26:47.278Z,76.48
2024-02-07T08:28:52.826Z,76.46
2024-02-07T08:30:55.849Z,76.29
2024-02-07T08:33:00.303Z,76.11
2024-02-07T08:35:03.960Z,75.62
2024-02-07T08:37:07.595Z,75.08
2024-02-07T08:39:10.617Z,75.03
2024-02-07T08:41:13.789Z,74.81
2024-02-07T08:43:53.327Z,74.51
2024-02-07T08:46:48.304Z,74.60
2024-02-07T08:48:52.859Z,74.15
2024-02-07T08:50:56.044Z,73.95
2024-02-07T08:53:00.194Z,73.51
2024-02-07T08:55:03.158Z,73.50
2024-02-07T08:57:06.455Z,73.55
2024-02-07T08:59:09.555Z,73.40
2024-02-07T09:01:11.949Z,73.81
2024-02-07T09:03:14.988Z,73.67
2024-02-07T09:05:21.213Z,73.94
2024-02-07T09:07:26.452Z,73.63
2024-02-07T09:09:34.153Z,73.77
2024-02-07T09:11:37.299Z,73.99
2024-02-07T09:13:40.248Z,74.08
2024-02-07T09:15:43.346Z,74.48
2024-02-07T09:17:46.347Z,74.51
2024-02-07T09:19:49.408Z,74.60
2024-02-07T09:21:53.752Z,74.81
2024-02-07T09:23:57.912Z,74.86
2024-02-07T09:26:00.937Z,75.06
2024-02-07T09:28:03.930Z,75.23
2024-02-07T09:30:12.654Z,75.12
2024-02-07T09:32:17.278Z,75.44
2024-02-07T09:34:20.352Z,75.41
2024-02-07T09:36:23.600Z,75.73
2024-02-07T09:38:28.541Z,75.69
2024-02-07T09:40:31.664Z,75.99
2024-02-07T09:42:38.876Z,76.05
2024-02-07T09:44:46.650Z,75.96
2024-02-07T09:46:54.997Z,76.12
2024-02-07T09:48:58.445Z,76.30
2024-02-07T09:51:01.801Z,76.24
2024-02-07T09:53:07.011Z,76.46
2024-02-07T09:55:12.238Z,76.49
2024-02-07T09:57:16.196Z,76.40
2024-02-07T09:59:21.794Z,76.15
2024-02-07T10:01:28.873Z,76.28
2024-02-07T10:03:35.576Z,75.68
2024-02-07T10:05:40.005Z,75.16
2024-02-07T10:07:44.139Z,74.65
2024-02-07T10:09:50.166Z,74.41
2024-02-07T10:11:54.908Z,73.78
2024-02-07T10:13:58.048Z,73.29
2024-02-07T10:16:03.495Z,72.87
2024-02-07T10:18:08.834Z,72.18
2024-02-07T10:20:12.610Z,71.67
2024-02-07T10:22:18.336Z,71.66
2024-02-07T10:24:21.912Z,71.16
2024-02-07T10:26:25.821Z,70.63
2024-02-07T10:28:31.848Z,69.68
2024-02-07T10:30:35.005Z,69.05
2024-02-07T10:32:40.133Z,68.50
2024-02-07T10:34:43.362Z,68.33
2024-02-07T10:36:46.487Z,67.82
2024-02-07T10:38:49.734Z,67.49
2024-02-07T10:40:55.581Z,67.38
2024-02-07T10:42:59.729Z,66.91
2024-02-07T10:45:08.914Z,66.67
2024-02-07T10:47:12.329Z,65.98
2024-02-07T10:49:15.576Z,66.08
2024-02-07T10:51:19.779Z,65.93
2024-02-07T10:53:23.516Z,65.98
2024-02-07T10:55:27.375Z,65.57
2024-02-07T10:57:36.473Z,65.21
2024-02-07T10:59:41.434Z,65.26
2024-02-07T11:01:46.979Z,65.47
2024-02-07T11:03:50.374Z,65.60
2024-02-07T11:05:53.805Z,65.87
2024-02-07T11:07:56.383Z,65.39
2024-02-07T11:10:12.155Z,65.42
2024-02-07T11:12:30.998Z,65.54
2024-02-07T11:14:41.554Z,65.89
2024-02-07T11:16:55.788Z,65.64
2024-02-07T11:19:11.232Z,65.64
2024-02-07T11:21:42.601Z,65.44
2024-02-07T11:24:04.376Z,64.93
2024-02-07T11:26:18.300Z,64.99
2024-02-07T11:28:27.843Z,64.84
2024-02-07T11:30:31.781Z,64.87
2024-02-07T11:32:37.263Z,64.96
2024-02-07T11:34:40.589Z,64.87
2024-02-07T11:36:54.186Z,65.13
2024-02-07T11:38:59.693Z,65.18
2024-02-07T11:41:05.929Z,65.18
2024-02-07T11:43:11.607Z,65.36
2024-02-07T11:45:15.825Z,65.71
2024-02-07T11:47:25.327Z,65.15
2024-02-07T11:49:30.404Z,65.03
2024-02-07T11:51:35.633Z,64.74
2024-02-07T11:53:43.006Z,64.17
2024-02-07T11:55:48.046Z,62.80
2024-02-07T11:57:54.732Z,62.14
2024-02-07T12:00:00.254Z,61.60
2024-02-07T12:02:04.740Z,61.15
2024-02-07T12:04:08.042Z,60.76
2024-02-07T12:06:14.006Z,61.25
2024-02-07T12:08:19.682Z,61.45
2024-02-07T12:10:23.447Z,60.77
2024-02-07T12:12:26.641Z,60.75
2024-02-07T12:14:29.671Z,60.74
2024-02-07T12:16:32.860Z,60.65
2024-02-07T12:18:36.815Z,60.29
2024-02-07T12:20:40.106Z,60.16
2024-02-07T12:22:44.713Z,59.98
2024-02-07T12:24:48.488Z,59.82
2024-02-07T12:26:51.535Z,59.67
2024-02-07T12:28:58.503Z,59.82
2024-02-07T12:31:02.618Z,59.93
2024-02-07T12:33:06.245Z,59.40
2024-02-07T12:35:09.201Z,59.54
2024-02-07T12:37:14.503Z,59.14
2024-02-07T12:39:27.792Z,58.94
2024-02-07T12:41:32.520Z,58.90
2024-02-07T12:43:37.736Z,58.65
2024-02-07T12:45:43.887Z,59.13
2024-02-07T12:47:48.651Z,59.39
2024-02-07T12:49:53.592Z,59.28
2024-02-07T12:51:57.427Z,59.49
2024-02-07T12:54:04.990Z,59.36
2024-02-07T12:56:18.550Z,59.52
2024-02-07T12:58:22.699Z,59.83
2024-02-07T13:00:26.924Z,60.02
2024-02-07T13:02:33.237Z,60.32
2024-02-07T13:04:37.794Z,60.51
2024-02-07T13:06:44.073Z,60.74
2024-02-07T13:08:48.624Z,61.19
2024-02-07T13:10:52.346Z,61.40
2024-02-07T13:12:57.044Z,61.72
2024-02-07T13:15:02.075Z,62.15
2024-02-07T13:17:05.748Z,62.13
2024-02-07T13:19:09.277Z,62.19
2024-02-07T13:21:15.317Z,62.58
2024-02-07T13:23:20.040Z,62.53
2024-02-07T13:25:25.343Z,63.05
2024-02-07T13:27:28.916Z,62.94
2024-02-07T13:29:34.698Z,63.26
2024-02-07T13:31:38.127Z,63.12
2024-02-07T13:33:41.533Z,63.22
2024-02-07T13:35:44.752Z,63.31
2024-02-07T13:37:47.963Z,63.55
2024-02-07T13:39:50.534Z,63.18
2024-02-07T13:41:53.941Z,63.59
2024-02-07T13:43:57.797Z,63.65
2024-02-07T13:46:02.771Z,63.86
2024-02-07T13:48:06.978Z,63.85
2024-02-07T13:50:11.304Z,64.07
2024-02-07T13:52:14.932Z,63.60
2024-02-07T13:54:18.074Z,63.55
2024-02-07T13:56:21.624Z,62.81
2024-02-07T13:58:25.993Z,62.41
2024-02-07T14:00:29.248Z,61.86
2024-02-07T14:02:33.705Z,61.26
2024-02-07T14:04:36.857Z,60.13
2024-02-07T14:06:43.489Z,59.63
2024-02-07T14:08:48.051Z,59.79
2024-02-07T14:10:50.716Z,59.43
2024-02-07T14:12:53.939Z,59.36
2024-02-07T14:14:56.983Z,59.27
2024-02-07T14:17:00.193Z,59.83
2024-02-07T14:19:05.153Z,59.64
2024-02-07T14:21:09.319Z,59.70
2024-02-07T14:23:13.428Z,59.88
2024-02-07T14:25:16.721Z,59.79
2024-02-07T14:27:19.842Z,60.11
2024-02-07T14:29:23.088Z,60.04
2024-02-07T14:31:26.738Z,60.08
2024-02-07T14:33:30.295Z,60.40
2024-02-07T14:35:35.028Z,60.58
2024-02-07T14:37:40.325Z,60.82
2024-02-07T14:39:43.385Z,61.26
2024-02-07T14:41:46.387Z,61.27
2024-02-07T14:43:49.477Z,61.25
2024-02-07T14:45:52.654Z,61.47
2024-02-07T14:47:55.966Z,61.28
2024-02-07T14:49:59.237Z,61.64
2024-02-07T14:52:03.809Z,61.56
2024-02-07T14:54:06.956Z,61.93
2024-02-07T14:56:10.530Z,62.04
2024-02-07T14:58:13.617Z,62.25
2024-02-07T15:00:16.534Z,62.34
2024-02-07T15:02:19.603Z,62.68
2024-02-07T15:04:22.773Z,62.88
2024-02-07T15:06:26.106Z,63.07
2024-02-07T15:08:30.495Z,62.97
2024-02-07T15:10:33.643Z,63.30
2024-02-07T15:12:36.706Z,63.31
2024-02-07T15:14:39.758Z,63.39
2024-02-07T15:16:43.062Z,63.58
2024-02-07T15:18:46.137Z,63.63
2024-02-07T15:20:49.291Z,63.91
2024-02-07T15:22:52.230Z,64.04
2024-02-07T15:24:56.666Z,64.37
2024-02-07T15:26:59.725Z,64.41
2024-02-07T15:29:02.911Z,64.68
2024-02-07T15:31:06.363Z,64.92
2024-02-07T15:33:09.571Z,64.98
2024-02-07T15:35:13.639Z,65.13
2024-02-07T15:37:18.204Z,65.14
2024-02-07T15:39:21.450Z,65.38
2024-02-07T15:41:25.864Z,65.48
2024-02-07T15:43:29.733Z,65.56
2024-02-07T15:45:32.870Z,65.86
2024-02-07T15:47:35.941Z,66.08
2024-02-07T15:49:39.404Z,66.29
2024-02-07T15:51:42.561Z,66.62
2024-02-07T15:53:44.702Z,66.83
2024-02-07T15:55:47.837Z,67.13
2024-02-07T15:57:52.204Z,67.33
2024-02-07T15:59:55.514Z,67.71
2024-02-07T16:01:58.942Z,68.01
2024-02-07T16:04:02.061Z,68.21
2024-02-07T16:06:05.544Z,68.43
2024-02-07T16:08:11.051Z,68.84
2024-02-07T16:10:15.171Z,69.15
2024-02-07T16:12:18.265Z,69.62
2024-02-07T16:14:22.863Z,70.04
2024-02-07T16:16:25.103Z,70.14
2024-02-07T16:18:30.171Z,70.56
2024-02-07T16:20:33.947Z,70.97
2024-02-07T16:22:37.118Z,71.47
2024-02-07T16:24:40.352Z,71.59
2024-02-07T16:26:43.543Z,71.96
2024-02-07T16:28:46.772Z,72.24
2024-02-07T16:30:51.326Z,72.51
2024-02-07T16:32:54.427Z,72.67
2024-02-07T16:34:57.589Z,73.11
2024-02-07T16:37:01.693Z,73.30
2024-02-07T16:39:05.861Z,73.42
2024-02-07T16:41:10.767Z,73.69
2024-02-07T16:43:14.057Z,74.03
2024-02-07T16:45:17.142Z,74.45
2024-02-07T16:47:21.545Z,74.73
2024-02-07T16:49:26.825Z,74.68
2024-02-07T16:51:32.113Z,74.91
2024-02-07T16:53:35.256Z,75.37
2024-02-07T16:55:38.488Z,75.70
2024-02-07T16:57:42.064Z,75.84
2024-02-07T16:59:46.881Z,76.08
2024-02-07T17:01:50.097Z,76.37
2024-02-07T17:03:55.023Z,76.33
2024-02-07T17:05:58.279Z,76.51
2024-02-07T17:08:01.532Z,76.83
2024-02-07T17:10:05.187Z,77.04
2024-02-07T17:12:09.247Z,77.26
2024-02-07T17:14:12.386Z,77.24
2024-02-07T17:16:16.239Z,77.46
2024-02-07T17:18:19.533Z,77.56
2024-02-07T17:20:24.204Z,77.72
2024-02-07T17:22:27.453Z,77.80
2024-02-07T17:24:30.541Z,78.06
2024-02-07T17:26:33.599Z,78.14
2024-02-07T17:28:38.038Z,78.60
2024-02-07T17:30:42.529Z,78.60
2024-02-07T17:32:46.983Z,78.67
2024-02-07T17:34:50.373Z,78.96
2024-02-07T17:36:57.584Z,78.92
2024-02-07T17:39:01.043Z,79.03
2024-02-07T17:41:08.629Z,79.26
2024-02-07T17:43:12.079Z,79.33
2024-02-07T17:45:18.211Z,79.55
2024-02-07T17:47:21.274Z,79.87
2024-02-07T17:49:24.555Z,80.23
2024-02-07T17:51:26.918Z,80.21
2024-02-07T17:53:31.379Z,80.49
2024-02-07T17:55:34.565Z,80.57
2024-02-07T17:57:38.052Z,80.82
2024-02-07T17:59:41.522Z,81.08
2024-02-07T18:01:44.692Z,81.38
2024-02-07T18:03:47.801Z,81.57
2024-02-07T18:05:51.055Z,81.76
2024-02-07T18:07:56.972Z,82.18
2024-02-07T18:10:01.563Z,82.11
2024-02-07T18:12:06.372Z,82.28
2024-02-07T18:14:09.468Z,82.63
2024-02-07T18:16:17.697Z,83.17
2024-02-07T18:18:20.900Z,83.31
2024-02-07T18:20:24.646Z,83.27
2024-02-07T18:22:27.901Z,83.49
2024-02-07T18:24:31.048Z,83.58
2024-02-07T18:26:37.339Z,83.64
2024-02-07T18:28:40.887Z,83.60
2024-02-07T18:30:46.565Z,83.90
2024-02-07T18:32:49.893Z,84.09
2024-02-07T18:34:52.156Z,84.40
2024-02-07T18:36:55.351Z,84.55
2024-02-07T18:38:58.478Z,84.74
2024-02-07T18:41:01.687Z,84.90
2024-02-07T18:43:06.278Z,85.25
2024-02-07T18:45:09.977Z,85.31
2024-02-07T18:47:13.121Z,85.52
2024-02-07T18:49:16.303Z,85.66
2024-02-07T18:51:19.958Z,85.63
2024-02-07T18:55:59.678Z,86.11
2024-02-07T18:58:02.787Z,86.28
2024-02-07T19:00:09.905Z,86.42
2024-02-07T19:02:16.108Z,86.70
2024-02-07T19:04:22.006Z,87.01
2024-02-07T19:06:25.525Z,87.08
2024-02-07T19:08:28.782Z,87.14
2024-02-07T19:10:32.020Z,87.49
2024-02-07T19:12:35.204Z,87.65
2024-02-07T19:14:38.258Z,87.74
2024-02-07T19:16:43.897Z,87.84
2024-02-07T19:18:47.220Z,87.90
2024-02-07T19:20:50.462Z,88.07
2024-02-07T19:22:53.651Z,88.24
2024-02-07T19:24:56.731Z,88.26
2024-02-07T19:26:59.790Z,88.51
2024-02-07T19:29:02.953Z,88.63
2024-02-07T19:31:06.637Z,88.60
2024-02-07T19:33:11.049Z,88.92
2024-02-07T19:35:14.594Z,88.76
2024-02-07T19:37:17.708Z,89.09
2024-02-07T19:39:20.831Z,88.99
2024-02-07T19:41:24.277Z,89.12
2024-02-07T19:43:27.489Z,89.38
2024-02-07T19:45:30.688Z,89.35
2024-02-07T19:47:33.994Z,89.49
2024-02-07T19:49:38.809Z,89.54
2024-02-07T19:51:42.125Z,89.46
2024-02-07T19:53:44.214Z,89.56
2024-02-07T19:55:47.355Z,89.74
2024-02-07T19:57:50.429Z,89.72
2024-02-07T19:59:53.518Z,89.83
2024-02-07T20:01:57.744Z,89.85
2024-02-07T20:04:00.982Z,89.91
2024-02-07T20:06:05.953Z,90.04
2024-02-07T20:08:10.322Z,90.05
2024-02-07T20:10:13.448Z,90.16
2024-02-07T20:12:17.096Z,90.30
2024-02-07T20:14:20.522Z,90.11
2024-02-07T20:16:22.727Z,90.29
2024-02-07T20:18:26.155Z,90.37
2024-02-07T20:20:29.485Z,90.55
2024-02-07T20:22:34.252Z,90.62
2024-02-07T20:24:38.585Z,90.67
2024-02-07T20:26:41.775Z,90.58
2024-02-07T20:28:44.899Z,90.66
2024-02-07T20:30:48.578Z,90.86
2024-02-07T20:32:51.803Z,91.02
2024-02-07T20:34:55.125Z,91.21
2024-02-07T20:37:03.334Z,91.24
2024-02-07T20:39:07.925Z,91.17
2024-02-07T20:41:11.256Z,91.11
2024-02-07T20:43:15.397Z,91.11
2024-02-07T20:45:20.674Z,91.19
2024-02-07T20:47:23.830Z,91.44
2024-02-07T20:49:27.889Z,91.37
2024-02-07T20:51:30.189Z,91.41
2024-02-07T20:53:35.416Z,91.46
2024-02-07T20:55:40.125Z,91.51
2024-02-07T20:57:43.517Z,91.43
2024-02-07T20:59:46.774Z,91.56
2024-02-07T21:01:49.986Z,91.50
2024-02-07T21:03:53.633Z,91.69
2024-02-07T21:05:57.767Z,91.57
2024-02-07T21:07:59.988Z,91.81
2024-02-07T21:10:03.714Z,91.73
2024-02-07T21:12:08.968Z,91.88
2024-02-07T21:14:13.210Z,91.92
2024-02-07T21:16:16.383Z,91.87
2024-02-07T21:18:19.695Z,92.11
2024-02-07T21:20:23.038Z,91.79
2024-02-07T21:22:26.449Z,92.11
2024-02-07T21:24:29.497Z,92.15
2024-02-07T21:26:32.613Z,92.20
2024-02-07T21:28:37.109Z,92.38
2024-02-07T21:30:40.271Z,92.37
2024-02-07T21:32:43.439Z,92.42
2024-02-07T21:34:47.202Z,92.46
2024-02-07T21:36:49.584Z,92.50
2024-02-07T21:38:52.658Z,92.73
2024-02-07T21:40:55.886Z,92.58
2024-02-07T21:42:59.156Z,92.60
2024-02-07T21:45:04.169Z,92.76
2024-02-07T21:47:07.971Z,92.73
2024-02-07T21:49:11.187Z,92.84
2024-02-07T21:51:18.089Z,92.85
2024-02-07T21:53:23.787Z,92.84
2024-02-07T21:55:25.831Z,92.98
2024-02-07T21:57:28.869Z,93.03
2024-02-07T21:59:31.916Z,93.09
2024-02-07T22:01:35.703Z,93.18
2024-02-07T22:03:38.799Z,93.09
2024-02-07T22:05:42.999Z,93.13
2024-02-07T22:07:46.274Z,93.13
2024-02-07T22:09:49.463Z,92.98
2024-02-07T22:11:52.495Z,93.23
2024-02-07T22:13:55.588Z,92.93
2024-02-07T22:15:58.647Z,92.97
2024-02-07T22:18:03.228Z,93.32
2024-02-07T22:20:07.478Z,92.96
2024-02-07T22:22:13.767Z,92.92
2024-02-07T22:24:16.803Z,92.99
2024-02-07T22:26:20.046Z,92.76
2024-02-07T22:28:23.126Z,92.66
2024-02-07T22:30:26.382Z,92.74
2024-02-07T22:32:29.460Z,92.96
2024-02-07T22:34:34.108Z,92.95
2024-02-07T22:36:37.861Z,92.85
2024-02-07T22:38:41.139Z,92.63
2024-02-07T22:40:44.427Z,92.82
2024-02-07T22:42:46.522Z,92.77
2024-02-07T22:44:49.724Z,92.65
2024-02-07T22:46:52.943Z,92.73
2024-02-07T22:48:56.068Z,92.77
2024-02-07T22:51:00.574Z,92.82
2024-02-07T22:53:03.795Z,92.70
2024-02-07T22:55:07.229Z,92.93
2024-02-07T22:57:10.214Z,92.92
2024-02-07T22:59:13.351Z,92.81
2024-02-07T23:01:16.558Z,92.85
2024-02-07T23:03:22.441Z,92.82
2024-02-07T23:05:25.768Z,92.69
2024-02-07T23:07:30.275Z,92.92
2024-02-07T23:09:35.100Z,92.95
2024-02-07T23:11:37.478Z,92.81
2024-02-07T23:13:40.582Z,92.96
2024-02-07T23:15:44.777Z,92.76
2024-02-07T23:17:47.981Z,92.84
2024-02-07T23:19:49.993Z,92.86
2024-02-07T23:21:53.184Z,92.79
2024-02-07T23:23:57.661Z,92.82
2024-02-07T23:26:00.746Z,92.96
2024-02-07T23:28:06.401Z,92.84
2024-02-07T23:30:10.160Z,92.72
2024-02-07T23:32:13.235Z,92.69
2024-02-07T23:34:16.328Z,92.57
2024-02-07T23:36:19.414Z,92.39
2024-02-07T23:38:22.558Z,92.44
2024-02-07T23:40:27.017Z,92.16
2024-02-07T23:42:30.165Z,92.33
2024-02-07T23:44:35.255Z,92.26
2024-02-07T23:46:38.879Z,91.99
2024-02-07T23:48:42.276Z,91.97
2024-02-07T23:50:45.752Z,91.88
2024-02-07T23:52:48.837Z,91.80
2024-02-07T23:54:51.450Z,91.85
2024-02-07T23:56:55.838Z,91.77
2024-02-07T23:58:58.976Z,91.67
